Time;durP1;ratioP1;P1;durP2;ratioP2;P2;SDS_P1;SDS_P2;PMS_P1;PMS_P2;Temp;Humidity;BMP_temperature;BMP_pressure;BME280_temperature;BME280_humidity;BME280_pressure;Samples;Min_cycle;Max_cycle;Signal;HPM_P1;HPM_P2
2022/01/13 00:00:20;;;;;;;3.97;0.80;;;23.20;99.90;;;;;;5051668;28;20070;-82
2022/01/13 00:02:48;;;;;;;1.95;0.50;;;23.00;99.90;;;;;;5052025;28;20377;-73
2022/01/13 00:05:18;;;;;;;3.15;0.70;;;23.00;99.90;;;;;;5049643;28;20078;-83
2022/01/13 00:07:45;;;;;;;3.55;0.90;;;23.00;99.90;;;;;;5051477;28;20108;-82
2022/01/13 00:10:13;;;;;;;2.88;0.70;;;23.10;99.90;;;;;;5051207;28;20537;-76
2022/01/13 00:12:43;;;;;;;3.75;1.05;;;23.00;99.90;;;;;;5050935;28;20489;-78
2022/01/13 00:18:01;;;;;;;3.58;0.68;;;23.00;99.90;;;;;;5052013;28;20036;-75
2022/01/13 00:20:37;;;;;;;4.20;1.13;;;23.00;99.90;;;;;;5051893;28;20112;-79
2022/01/13 00:25:54;;;;;;;4.45;0.98;;;23.00;99.90;;;;;;5052316;28;20028;-79
2022/01/13 00:28:22;;;;;;;3.83;1.10;;;22.90;99.90;;;;;;5051650;28;20033;-72
2022/01/13 00:30:54;;;;;;;3.13;1.00;;;22.70;99.90;;;;;;5051818;28;20026;-82
2022/01/13 00:33:26;;;;;;;3.65;1.10;;;22.50;99.90;;;;;;5051404;28;20032;-72
2022/01/13 00:35:59;;;;;;;4.25;1.90;;;22.30;99.90;;;;;;5067680;28;20112;-73
2022/01/13 00:38:31;;;;;;;4.20;1.02;;;22.00;99.90;;;;;;5052838;28;20044;-72
2022/01/13 00:40:59;;;;;;;2.47;0.93;;;21.70;99.90;;;;;;5052762;28;20462;-74
2022/01/13 00:43:27;;;;;;;2.97;1.30;;;21.60;99.90;;;;;;5038874;28;20026;-79
2022/01/13 00:45:54;;;;;;;3.78;1.27;;;21.60;99.90;;;;;;5038890;28;20048;-74
2022/01/13 00:48:22;;;;;;;4.72;0.85;;;21.60;99.90;;;;;;5051035;28;20017;-81
2022/01/13 00:50:50;;;;;;;1.83;0.70;;;21.60;99.90;;;;;;5050988;28;20482;-81
2022/01/13 00:53:18;;;;;;;2.50;0.50;;;21.50;99.90;;;;;;5050223;28;20096;-79
2022/01/13 00:55:57;;;;;;;1.38;0.55;;;21.30;99.90;;;;;;5051720;28;20049;-74
2022/01/13 00:58:27;;;;;;;2.35;0.63;;;21.20;99.90;;;;;;5051918;28;20024;-77
2022/01/13 01:00:55;;;;;;;1.45;0.73;;;21.20;99.90;;;;;;5050098;28;20032;-78
2022/01/13 01:03:24;;;;;;;4.93;1.00;;;21.20;99.90;;;;;;5048897;28;20102;-78
2022/01/13 01:05:52;;;;;;;4.25;0.85;;;21.20;99.90;;;;;;5051123;28;20063;-74
2022/01/13 01:08:21;;;;;;;2.38;0.90;;;21.20;99.90;;;;;;5048441;28;20086;-74
2022/01/13 01:10:51;;;;;;;5.30;1.10;;;21.30;99.90;;;;;;5049593;28;20032;-77
2022/01/13 01:13:22;;;;;;;6.88;0.85;;;21.30;99.90;;;;;;5053370;28;20091;-77
2022/01/13 01:15:54;;;;;;;5.00;1.13;;;21.30;99.90;;;;;;5051415;28;20021;-75
2022/01/13 01:18:38;;;;;;;3.85;1.02;;;21.30;99.90;;;;;;5051195;28;20056;-77
2022/01/13 01:31:50;;;;;;;1.45;0.70;;;21.50;99.90;;;;;;5034349;28;20119;-79
2022/01/13 01:36:54;;;;;;;2.58;1.10;;;21.70;99.90;;;;;;5034393;28;20071;-78
2022/01/13 01:39:23;;;;;;;2.83;1.23;;;21.70;99.90;;;;;;5034407;28;20029;-81
2022/01/13 01:41:53;;;;;;;1.73;0.90;;;21.70;99.90;;;;;;5034801;28;20021;-81
2022/01/13 01:44:34;;;;;;;6.28;1.30;;;21.70;99.90;;;;;;5034881;28;20390;-81
2022/01/13 01:47:03;;;;;;;2.30;1.10;;;21.80;99.90;;;;;;5034928;28;20104;-80
2022/01/13 01:49:38;;;;;;;2.83;1.33;;;21.80;99.90;;;;;;5034787;28;20565;-79
2022/01/13 01:52:06;;;;;;;2.47;1.10;;;22.00;99.90;;;;;;5034735;28;20140;-81
2022/01/13 01:54:34;;;;;;;2.88;0.80;;;21.80;99.90;;;;;;5034721;28;20025;-80
2022/01/13 01:57:02;;;;;;;1.40;0.50;;;21.70;99.90;;;;;;5034996;28;20044;-80
2022/01/13 01:59:33;;;;;;;1.27;0.43;;;21.80;99.90;;;;;;5035012;28;20028;-80
2022/01/13 02:02:01;;;;;;;1.80;1.10;;;21.80;99.90;;;;;;5034373;28;20552;-79
2022/01/13 02:04:29;;;;;;;2.22;0.80;;;21.80;99.90;;;;;;5034781;28;20040;-80
2022/01/13 02:07:03;;;;;;;2.20;0.75;;;21.80;99.90;;;;;;5034916;28;20026;-80
2022/01/13 02:09:35;;;;;;;2.37;0.80;;;21.90;99.90;;;;;;5034698;28;20017;-79
2022/01/13 02:12:10;;;;;;;2.13;0.75;;;21.80;99.90;;;;;;5045346;28;20033;-79
2022/01/13 02:14:58;;;;;;;1.83;0.60;;;21.80;99.90;;;;;;5054055;28;20092;-81
2022/01/13 02:17:28;;;;;;;1.90;0.65;;;21.60;99.90;;;;;;5053524;28;20141;-78
2022/01/13 02:19:58;;;;;;;4.13;0.80;;;21.70;99.90;;;;;;5052837;28;20020;-76
2022/01/13 02:22:26;;;;;;;4.00;1.00;;;21.70;99.90;;;;;;5053414;28;20074;-73
2022/01/13 02:24:54;;;;;;;2.20;0.90;;;21.70;99.90;;;;;;5053302;28;20432;-77
2022/01/13 02:27:22;;;;;;;2.47;0.57;;;21.80;99.90;;;;;;5052015;28;20052;-77
2022/01/13 02:29:50;;;;;;;1.48;0.73;;;22.00;99.90;;;;;;5054818;28;20020;-72
2022/01/13 02:32:19;;;;;;;2.33;1.10;;;22.00;99.90;;;;;;5068667;28;20406;-79
2022/01/13 02:34:48;;;;;;;3.47;1.05;;;21.90;99.90;;;;;;5053597;28;20051;-75
2022/01/13 02:37:15;;;;;;;4.32;0.80;;;22.10;99.90;;;;;;5052354;28;20021;-73
2022/01/13 02:39:43;;;;;;;1.00;0.90;;;22.10;99.90;;;;;;5052885;28;20021;-76
2022/01/13 02:42:14;;;;;;;2.17;1.05;;;22.10;99.90;;;;;;5054143;28;20052;-76
2022/01/13 02:45:21;;;;;;;2.80;0.68;;;22.30;99.90;;;;;;5053968;28;20394;-74
2022/01/13 02:50:06;;;;;;;2.05;1.02;;;22.90;99.90;;;;;;5052118;28;20023;-79
2022/01/13 02:52:35;;;;;;;2.63;0.82;;;23.00;99.90;;;;;;5033982;28;20037;-74
2022/01/13 02:55:03;;;;;;;1.48;0.80;;;23.30;99.90;;;;;;5042201;28;20025;-76
2022/01/13 02:57:32;;;;;;;6.28;1.02;;;23.20;99.90;;;;;;5053712;28;20083;-75
2022/01/13 03:00:00;;;;;;;0.95;0.63;;;23.00;99.90;;;;;;5053739;28;20091;-73
2022/01/13 03:02:31;;;;;;;4.32;1.10;;;22.70;99.90;;;;;;5053618;28;20025;-78
2022/01/13 03:04:58;;;;;;;6.22;1.00;;;22.50;99.90;;;;;;5053662;28;20024;-80
2022/01/13 03:07:30;;;;;;;9.07;0.80;;;22.40;99.90;;;;;;5053287;28;20013;-78
2022/01/13 03:09:58;;;;;;;3.50;0.85;;;22.30;99.90;;;;;;5053497;28;20064;-79
2022/01/13 03:12:27;;;;;;;1.88;0.73;;;22.20;99.90;;;;;;5053269;28;20100;-79
2022/01/13 03:14:55;;;;;;;1.48;0.47;;;22.20;99.90;;;;;;5053236;28;20462;-72
2022/01/13 03:17:23;;;;;;;3.58;0.90;;;21.90;99.90;;;;;;5053297;28;20495;-75
2022/01/13 03:19:50;;;;;;;1.85;0.80;;;21.70;99.90;;;;;;5053401;28;20020;-74
2022/01/13 03:22:18;;;;;;;1.63;0.85;;;21.50;99.90;;;;;;5053242;28;20028;-71
2022/01/13 03:24:46;;;;;;;1.73;0.52;;;21.40;99.90;;;;;;5053190;28;20032;-75
2022/01/13 03:27:20;;;;;;;2.17;0.82;;;21.30;99.90;;;;;;5044373;28;20022;-75
2022/01/13 03:29:48;;;;;;;1.48;0.80;;;21.20;99.90;;;;;;5036077;28;20021;-75
2022/01/13 03:32:16;;;;;;;1.50;0.50;;;21.20;99.90;;;;;;5035937;28;20034;-76
2022/01/13 03:34:44;;;;;;;1.40;0.50;;;21.20;99.90;;;;;;5036112;28;20017;-71
2022/01/13 03:37:13;;;;;;;1.23;0.55;;;21.20;99.90;;;;;;5036170;28;20022;-70
2022/01/13 03:39:40;;;;;;;2.13;0.68;;;21.20;99.90;;;;;;5051649;28;20024;-71
2022/01/13 03:42:08;;;;;;;0.60;0.43;;;21.10;99.90;;;;;;5052547;28;20371;-71
2022/01/13 03:44:36;;;;;;;1.40;0.63;;;21.20;99.90;;;;;;5052340;28;20113;-77
2022/01/13 03:47:04;;;;;;;0.98;0.65;;;21.40;99.90;;;;;;5049433;28;20032;-75
2022/01/13 03:49:33;;;;;;;1.42;0.50;;;21.30;99.90;;;;;;5051124;28;20386;-77
2022/01/13 03:52:04;;;;;;;1.38;0.57;;;21.20;99.90;;;;;;5051166;28;20037;-78
2022/01/13 03:54:35;;;;;;;4.32;0.40;;;21.20;99.90;;;;;;5037099;28;20478;-76
2022/01/13 03:57:46;;;;;;;3.33;0.70;;;21.30;99.90;;;;;;5049785;28;20032;-82
2022/01/13 04:00:50;;;;;;;2.10;0.80;;;21.30;99.90;;;;;;5051686;28;20025;-74
2022/01/13 04:03:17;;;;;;;1.23;0.60;;;21.30;99.90;;;;;;5052041;28;20049;-75
2022/01/13 04:06:22;;;;;;;1.10;0.88;;;21.40;99.90;;;;;;5052032;28;20109;-82
2022/01/13 04:08:50;;;;;;;2.13;0.80;;;21.60;99.90;;;;;;5031656;28;20056;-77
2022/01/13 04:11:25;;;;;;;2.58;0.90;;;21.70;99.90;;;;;;5048743;28;20486;-74
2022/01/13 04:13:59;;;;;;;1.75;0.50;;;21.70;99.90;;;;;;5048687;28;20358;-81
2022/01/13 04:16:36;;;;;;;2.35;0.75;;;21.80;99.90;;;;;;5032154;28;20083;-79
2022/01/13 04:19:06;;;;;;;1.70;0.57;;;22.00;99.90;;;;;;5037825;28;20112;-80
2022/01/13 04:21:38;;;;;;;2.63;0.70;;;22.00;99.90;;;;;;5035790;28;20076;-76
2022/01/13 04:24:06;;;;;;;2.92;0.82;;;22.00;99.90;;;;;;5044567;28;20452;-80
2022/01/13 04:26:34;;;;;;;2.30;1.02;;;22.00;99.90;;;;;;5050725;28;20017;-80
2022/01/13 04:31:42;;;;;;;2.05;0.65;;;22.50;99.90;;;;;;5048301;28;20433;-80
2022/01/13 04:34:10;;;;;;;1.40;0.70;;;22.90;99.90;;;;;;5051601;28;20486;-82
2022/01/13 04:36:38;;;;;;;1.52;0.80;;;23.00;99.90;;;;;;5051405;28;20025;-82
2022/01/13 04:39:08;;;;;;;2.47;0.90;;;22.70;99.90;;;;;;5051166;28;20462;-82
2022/01/13 04:41:38;;;;;;;1.25;0.47;;;22.70;99.90;;;;;;5051855;28;20027;-77
2022/01/13 04:44:11;;;;;;;2.90;0.50;;;22.70;99.90;;;;;;5051712;28;20105;-78
2022/01/13 04:46:40;;;;;;;1.67;0.90;;;22.90;99.90;;;;;;5052801;28;20044;-76
2022/01/13 04:49:08;;;;;;;2.35;0.50;;;22.80;99.90;;;;;;5048050;28;20077;-72
2022/01/13 04:51:37;;;;;;;0.80;0.32;;;22.80;99.90;;;;;;5048648;28;20029;-80
2022/01/13 04:54:06;;;;;;;2.70;0.45;;;22.60;99.90;;;;;;5055076;28;20043;-73
2022/01/13 04:59:06;;;;;;;1.40;0.65;;;22.80;99.90;;;;;;5055062;28;20020;-74
2022/01/13 05:01:34;;;;;;;1.42;0.40;;;22.70;99.90;;;;;;5037687;28;20037;-74
2022/01/13 05:04:01;;;;;;;1.92;0.63;;;22.60;99.90;;;;;;5034770;28;20076;-81
2022/01/13 05:06:29;;;;;;;3.42;0.60;;;22.80;99.90;;;;;;5050749;28;20024;-80
2022/01/13 05:08:57;;;;;;;1.40;0.50;;;23.00;99.90;;;;;;5034573;28;20044;-73
2022/01/13 05:11:25;;;;;;;1.73;0.75;;;23.00;99.90;;;;;;5034111;28;20046;-78
2022/01/13 05:13:53;;;;;;;1.25;0.50;;;23.00;99.90;;;;;;5033980;28;20485;-77
2022/01/13 05:16:30;;;;;;;1.98;0.50;;;22.80;99.90;;;;;;5034180;28;20037;-72
2022/01/13 05:24:12;;;;;;;1.67;0.35;;;23.00;99.90;;;;;;5054287;28;20017;-86
2022/01/13 05:26:39;;;;;;;2.67;0.98;;;23.00;99.90;;;;;;5054106;28;20389;-83
2022/01/13 05:29:07;;;;;;;2.92;0.55;;;22.90;99.90;;;;;;5054195;28;20516;-75
2022/01/13 05:31:35;;;;;;;2.33;0.60;;;23.30;99.90;;;;;;5054224;28;20086;-84
2022/01/13 05:34:02;;;;;;;1.90;0.52;;;23.40;99.90;;;;;;5049449;28;20418;-80
2022/01/13 05:36:30;;;;;;;2.00;0.75;;;23.70;99.90;;;;;;5045331;28;20108;-73
2022/01/13 05:38:58;;;;;;;4.18;0.88;;;23.50;99.90;;;;;;5054229;28;20492;-73
2022/01/13 05:41:25;;;;;;;2.28;0.57;;;23.60;99.90;;;;;;5037520;28;20549;-75
2022/01/13 05:43:53;;;;;;;6.03;0.73;;;23.30;99.90;;;;;;5051920;28;20531;-78
2022/01/13 05:46:21;;;;;;;1.80;0.77;;;23.00;99.90;;;;;;5035030;28;20136;-77
2022/01/13 05:48:48;;;;;;;1.38;0.60;;;22.90;99.90;;;;;;5045145;28;20075;-72
2022/01/13 05:51:16;;;;;;;3.25;0.93;;;22.70;99.90;;;;;;5053403;28;20075;-82
2022/01/13 05:53:45;;;;;;;5.40;0.60;;;22.60;99.90;;;;;;5055256;28;20025;-77
2022/01/13 05:56:13;;;;;;;1.60;0.70;;;22.80;99.90;;;;;;5053958;28;20051;-82
2022/01/13 05:58:41;;;;;;;2.55;0.43;;;22.90;99.90;;;;;;5053609;28;20016;-73
2022/01/13 06:01:09;;;;;;;1.08;0.43;;;23.00;99.90;;;;;;5053750;28;20032;-72
2022/01/13 06:03:36;;;;;;;5.57;1.00;;;23.00;99.90;;;;;;5053937;28;20134;-71
2022/01/13 06:06:04;;;;;;;2.00;0.73;;;23.00;99.90;;;;;;5050329;28;20036;-81
2022/01/13 06:08:32;;;;;;;3.78;0.65;;;23.10;99.90;;;;;;5044193;28;20030;-75
2022/01/13 06:10:59;;;;;;;1.98;0.85;;;23.20;99.90;;;;;;5045764;28;20021;-71
2022/01/13 06:13:27;;;;;;;2.63;0.40;;;23.40;99.90;;;;;;5033593;28;20032;-71
2022/01/13 06:15:55;;;;;;;1.63;0.52;;;23.30;99.90;;;;;;5033511;28;20022;-76
2022/01/13 06:18:25;;;;;;;1.60;0.50;;;23.40;99.90;;;;;;5033174;28;20028;-71
2022/01/13 06:20:52;;;;;;;1.65;0.43;;;23.40;99.90;;;;;;5033587;28;20028;-72
2022/01/13 06:23:20;;;;;;;1.30;0.47;;;23.20;99.90;;;;;;5046370;28;20021;-71
2022/01/13 06:25:48;;;;;;;5.55;0.63;;;23.10;99.90;;;;;;5038110;28;20035;-73
2022/01/13 06:28:15;;;;;;;2.90;0.50;;;23.10;99.90;;;;;;5034433;28;20474;-79
2022/01/13 06:30:43;;;;;;;2.03;0.75;;;23.00;99.90;;;;;;5053054;28;20508;-80
2022/01/13 06:33:11;;;;;;;2.97;0.90;;;22.90;99.90;;;;;;5053042;28;20159;-70
2022/01/13 06:35:39;;;;;;;4.05;0.55;;;22.80;99.90;;;;;;5053369;28;20029;-72
2022/01/13 06:38:07;;;;;;;2.92;0.85;;;22.90;99.90;;;;;;5052414;28;20607;-72
2022/01/13 06:40:34;;;;;;;1.65;0.38;;;23.20;99.90;;;;;;5053375;28;20024;-75
2022/01/13 06:43:02;;;;;;;2.70;1.05;;;23.20;99.90;;;;;;5053275;28;20479;-76
2022/01/13 06:45:30;;;;;;;2.33;0.63;;;23.10;99.90;;;;;;5053369;28;20505;-71
2022/01/13 06:47:58;;;;;;;2.20;0.50;;;22.70;99.90;;;;;;5047823;28;20017;-75
2022/01/13 06:50:26;;;;;;;4.63;0.60;;;22.30;99.90;;;;;;5033048;28;20069;-81
2022/01/13 06:52:54;;;;;;;2.38;0.52;;;22.10;99.90;;;;;;5033281;28;20029;-81
2022/01/13 06:55:22;;;;;;;3.20;0.82;;;22.00;99.90;;;;;;5033470;28;20463;-83
2022/01/13 06:57:50;;;;;;;2.80;0.90;;;22.00;99.90;;;;;;5033912;28;20021;-78
2022/01/13 07:00:18;;;;;;;3.08;0.80;;;21.90;99.90;;;;;;5033749;28;20088;-73
2022/01/13 07:02:45;;;;;;;3.85;0.98;;;21.90;99.90;;;;;;5033316;28;20030;-84
2022/01/13 07:05:13;;;;;;;3.95;1.35;;;22.10;99.90;;;;;;5051325;28;20259;-72
2022/01/13 07:07:42;;;;;;;3.08;0.70;;;22.00;99.90;;;;;;5040964;28;20033;-70
2022/01/13 07:10:11;;;;;;;3.80;0.80;;;22.10;99.90;;;;;;5042170;28;20485;-74
2022/01/13 07:12:40;;;;;;;4.50;0.70;;;22.40;99.90;;;;;;5051076;28;20140;-77
2022/01/13 07:15:09;;;;;;;2.83;0.88;;;22.70;99.90;;;;;;5052844;28;20017;-81
2022/01/13 07:17:37;;;;;;;4.78;1.00;;;22.80;99.90;;;;;;5053253;28;20481;-78
2022/01/13 07:20:06;;;;;;;5.88;0.70;;;23.00;99.90;;;;;;5053215;28;20032;-69
2022/01/13 07:22:34;;;;;;;4.47;1.00;;;23.10;99.90;;;;;;5053839;28;20191;-70
2022/01/13 07:25:01;;;;;;;1.33;0.43;;;23.00;99.90;;;;;;5047214;28;20021;-78
2022/01/13 07:27:29;;;;;;;5.50;0.63;;;22.90;99.90;;;;;;5032888;28;20034;-75
2022/01/13 07:29:58;;;;;;;6.03;0.75;;;22.50;99.90;;;;;;5033118;28;20063;-76
2022/01/13 07:32:26;;;;;;;3.25;0.85;;;22.30;99.90;;;;;;5032965;28;20113;-73
2022/01/13 07:34:54;;;;;;;7.40;0.68;;;22.20;99.90;;;;;;5046483;28;20029;-74
2022/01/13 07:37:24;;;;;;;7.68;1.00;;;22.20;99.90;;;;;;5053156;28;20120;-80
2022/01/13 07:39:52;;;;;;;5.57;0.52;;;22.30;99.90;;;;;;5053546;28;20029;-70
2022/01/13 07:42:22;;;;;;;4.55;1.23;;;22.30;99.90;;;;;;5053457;28;20032;-70
2022/01/13 07:44:52;;;;;;;2.00;0.85;;;22.30;99.90;;;;;;5053520;28;20477;-70
2022/01/13 07:47:20;;;;;;;2.53;0.57;;;22.10;99.90;;;;;;5052979;28;20086;-72
2022/01/13 07:49:48;;;;;;;3.15;0.70;;;22.00;99.90;;;;;;5051971;28;20166;-76
2022/01/13 07:52:15;;;;;;;7.57;0.70;;;21.90;99.90;;;;;;5051462;28;20041;-79
2022/01/13 07:54:43;;;;;;;3.35;0.90;;;21.90;99.90;;;;;;5052131;28;20025;-70
2022/01/13 07:57:11;;;;;;;4.93;0.93;;;21.90;99.90;;;;;;5052240;28;20115;-77
2022/01/13 07:59:38;;;;;;;4.35;1.00;;;21.90;99.90;;;;;;5051523;28;20078;-71
2022/01/13 08:02:06;;;;;;;2.88;0.60;;;21.70;99.90;;;;;;5052705;28;20600;-72
2022/01/13 08:04:34;;;;;;;1.83;0.70;;;21.50;99.90;;;;;;5052879;28;20393;-71
2022/01/13 08:07:01;;;;;;;3.47;0.60;;;21.50;99.90;;;;;;5053319;28;20539;-70
2022/01/13 08:09:29;;;;;;;4.50;1.00;;;21.40;99.90;;;;;;5052928;28;20022;-70
2022/01/13 08:11:57;;;;;;;2.05;0.73;;;21.40;99.90;;;;;;5053050;28;20068;-70
2022/01/13 08:14:24;;;;;;;7.80;1.17;;;21.40;99.90;;;;;;5052943;28;20466;-70
2022/01/13 08:16:56;;;;;;;4.53;0.95;;;21.30;99.90;;;;;;5052998;28;20455;-71
2022/01/13 08:22:09;;;;;;;7.10;0.93;;;21.30;99.90;;;;;;5053829;28;20031;-80
2022/01/13 08:24:37;;;;;;;6.45;1.73;;;21.30;99.90;;;;;;5050191;28;20022;-69
2022/01/13 08:27:05;;;;;;;9.00;1.67;;;21.20;99.90;;;;;;5048666;28;20132;-71
2022/01/13 08:29:33;;;;;;;1.23;0.52;;;21.20;99.90;;;;;;5056690;28;20078;-70
2022/01/13 08:32:01;;;;;;;3.75;0.80;;;21.20;99.90;;;;;;5056100;28;20033;-82
2022/01/13 08:34:29;;;;;;;2.17;0.60;;;21.10;99.90;;;;;;5056808;28;20359;-70
2022/01/13 08:36:57;;;;;;;6.20;1.13;;;21.20;99.90;;;;;;5056719;28;20021;-71
2022/01/13 08:39:25;;;;;;;7.53;0.80;;;21.10;99.90;;;;;;5056500;28;20032;-71
2022/01/13 08:41:52;;;;;;;2.17;0.60;;;21.20;99.90;;;;;;5056160;28;20028;-80
2022/01/13 08:44:20;;;;;;;3.38;0.85;;;21.10;99.90;;;;;;5055785;28;20039;-71
2022/01/13 08:46:48;;;;;;;4.30;0.57;;;21.10;99.90;;;;;;5055761;28;20074;-71
2022/01/13 08:49:15;;;;;;;7.13;1.00;;;21.10;99.90;;;;;;5055784;28;20082;-71
2022/01/13 08:51:43;;;;;;;6.97;1.13;;;21.00;99.90;;;;;;5052625;28;20478;-70
2022/01/13 08:54:11;;;;;;;3.78;0.70;;;21.00;99.90;;;;;;5055542;28;20033;-70
2022/01/13 08:56:38;;;;;;;3.60;0.90;;;21.00;99.90;;;;;;5055553;28;20083;-73
2022/01/13 08:59:06;;;;;;;2.15;0.50;;;20.90;99.90;;;;;;5055445;28;20021;-70
2022/01/13 09:01:34;;;;;;;4.25;0.60;;;20.90;99.90;;;;;;5055588;28;20056;-70
2022/01/13 09:04:02;;;;;;;3.50;0.70;;;20.90;99.90;;;;;;5053007;28;20017;-79
2022/01/13 09:06:29;;;;;;;6.07;1.38;;;20.90;99.90;;;;;;5055845;28;20107;-70
2022/01/13 09:08:57;;;;;;;2.50;0.63;;;20.80;99.90;;;;;;5055566;28;20089;-70
2022/01/13 09:11:25;;;;;;;5.38;1.02;;;20.80;99.90;;;;;;5055020;28;20448;-71
2022/01/13 09:13:59;;;;;;;6.05;0.60;;;20.80;99.90;;;;;;5055783;28;20150;-70
2022/01/13 09:16:29;;;;;;;2.58;0.60;;;20.80;99.90;;;;;;5055633;28;20101;-80
2022/01/13 09:21:26;;;;;;;2.10;0.70;;;20.70;99.90;;;;;;5053217;28;20044;-70
2022/01/13 09:23:55;;;;;;;2.63;0.63;;;20.70;99.90;;;;;;5055556;28;20013;-72
2022/01/13 09:26:23;;;;;;;1.05;0.50;;;20.70;99.90;;;;;;5052891;28;20013;-83
2022/01/13 09:28:52;;;;;;;6.43;0.82;;;20.70;99.90;;;;;;5055241;28;20544;-84
2022/01/13 09:31:22;;;;;;;5.38;0.90;;;20.70;99.90;;;;;;5055356;28;20178;-83
2022/01/13 09:33:50;;;;;;;3.28;0.93;;;20.60;99.90;;;;;;5055026;28;20088;-78
2022/01/13 09:36:17;;;;;;;2.42;0.98;;;20.70;99.90;;;;;;5055008;28;20040;-81
2022/01/13 09:38:45;;;;;;;5.13;0.88;;;20.60;99.90;;;;;;5052453;28;20025;-83
2022/01/13 09:41:14;;;;;;;6.00;0.80;;;20.60;99.90;;;;;;5054584;28;20013;-85
2022/01/13 09:43:45;;;;;;;4.05;1.17;;;20.60;99.90;;;;;;5054468;28;20031;-70
2022/01/13 09:46:12;;;;;;;1.23;0.50;;;20.50;99.90;;;;;;5054547;28;20066;-70
2022/01/13 09:48:41;;;;;;;2.65;0.60;;;20.50;99.90;;;;;;5054049;28;20107;-69
2022/01/13 09:51:09;;;;;;;3.22;0.98;;;20.50;99.90;;;;;;5054412;28;20478;-83
2022/01/13 09:53:37;;;;;;;3.15;0.90;;;20.50;99.90;;;;;;5048944;28;21935;-80
2022/01/13 09:56:07;;;;;;;2.58;0.80;;;20.50;99.90;;;;;;5052526;28;20029;-78
2022/01/13 09:58:34;;;;;;;2.60;0.85;;;20.50;99.90;;;;;;5054593;28;20025;-83
2022/01/13 10:01:03;;;;;;;4.18;1.00;;;20.50;99.90;;;;;;5054751;28;20017;-70
2022/01/13 10:03:31;;;;;;;3.60;0.55;;;20.40;99.90;;;;;;5054701;28;20082;-85
2022/01/13 10:06:01;;;;;;;3.13;0.85;;;20.50;99.90;;;;;;5055061;28;20021;-83
2022/01/13 10:08:47;;;;;;;2.65;0.75;;;20.50;99.90;;;;;;5051960;28;20013;-70
2022/01/13 10:11:27;;;;;;;4.10;0.95;;;20.40;99.90;;;;;;5053625;28;20151;-84
2022/01/13 10:16:23;;;;;;;14.63;1.15;;;20.40;99.90;;;;;;5053024;28;20017;-70
2022/01/13 10:17:16;;;;;;;4.53;0.90;;;20.40;99.90;;;;;;5050766;28;20041;-85
2022/01/13 10:19:47;;;;;;;7.38;1.42;;;20.40;99.90;;;;;;5054662;28;20097;-71
2022/01/13 10:22:20;;;;;;;3.33;1.20;;;20.40;99.90;;;;;;5053381;28;20021;-70
2022/01/13 10:24:53;;;;;;;7.68;1.35;;;20.40;99.90;;;;;;5054244;28;20029;-76
2022/01/13 10:27:33;;;;;;;6.95;0.95;;;20.40;99.90;;;;;;5053618;28;20037;-71
2022/01/13 10:30:15;;;;;;;6.88;0.85;;;20.40;99.90;;;;;;5053931;28;20071;-70
2022/01/13 10:32:45;;;;;;;4.57;1.08;;;20.40;99.90;;;;;;5054037;28;20032;-71
2022/01/13 10:35:18;;;;;;;5.18;1.02;;;20.30;99.90;;;;;;5053004;28;20108;-71
2022/01/13 10:37:53;;;;;;;3.60;1.05;;;20.30;99.90;;;;;;5054019;28;20025;-73
2022/01/13 10:40:38;;;;;;;1.80;1.02;;;20.30;99.90;;;;;;5054089;28;20095;-84
2022/01/13 10:43:10;;;;;;;7.93;1.33;;;20.30;99.90;;;;;;5054018;28;20470;-70
2022/01/13 10:45:49;;;;;;;4.07;0.93;;;20.30;99.90;;;;;;5052958;28;20410;-76
2022/01/13 10:48:30;;;;;;;6.40;0.90;;;20.30;99.90;;;;;;5054042;28;20048;-86
2022/01/13 10:51:05;;;;;;;2.45;0.68;;;20.30;99.90;;;;;;5053523;28;20424;-77
2022/01/13 10:53:36;;;;;;;9.70;0.80;;;20.20;99.90;;;;;;5053624;28;20031;-86
2022/01/13 10:56:14;;;;;;;6.57;1.00;;;20.20;99.90;;;;;;5053457;28;20477;-86
2022/01/13 10:58:50;;;;;;;7.75;0.80;;;20.20;99.90;;;;;;5051604;28;20047;-85
2022/01/13 11:01:18;;;;;;;9.18;1.38;;;20.20;99.90;;;;;;5051661;28;20099;-87
2022/01/13 11:03:47;;;;;;;6.60;1.45;;;20.20;99.90;;;;;;5052863;28;20024;-85
2022/01/13 11:06:15;;;;;;;5.18;1.13;;;20.20;99.90;;;;;;5052923;28;20367;-71
2022/01/13 11:08:48;;;;;;;9.27;0.90;;;20.20;99.90;;;;;;5050475;28;20025;-86
2022/01/13 11:11:26;;;;;;;4.25;0.85;;;20.20;99.90;;;;;;5052061;28;20028;-86
2022/01/13 11:13:59;;;;;;;10.93;1.63;;;20.20;99.90;;;;;;5052055;28;20028;-77
2022/01/13 11:16:29;;;;;;;6.15;0.88;;;20.20;99.90;;;;;;5052424;28;20021;-87
2022/01/13 11:18:58;;;;;;;6.03;0.88;;;20.20;99.90;;;;;;5050600;28;20021;-71
2022/01/13 11:21:27;;;;;;;8.60;1.02;;;20.20;99.90;;;;;;5049086;28;20032;-71
2022/01/13 11:23:55;;;;;;;6.82;0.80;;;20.20;99.90;;;;;;5050500;28;20021;-85
2022/01/13 11:26:27;;;;;;;8.02;1.33;;;20.20;99.90;;;;;;5053193;28;20335;-86
2022/01/13 11:28:56;;;;;;;10.00;1.02;;;20.20;99.90;;;;;;5052062;28;20152;-86
2022/01/13 11:31:24;;;;;;;5.63;1.10;;;20.20;99.90;;;;;;5053480;28;20013;-86
2022/01/13 11:33:56;;;;;;;6.63;1.63;;;20.10;99.90;;;;;;5053656;28;20090;-79
2022/01/13 11:36:25;;;;;;;4.50;1.25;;;20.10;99.90;;;;;;5053676;28;20021;-84
2022/01/13 11:39:06;;;;;;;4.57;1.23;;;20.10;99.90;;;;;;5050180;28;20033;-86
2022/01/13 11:41:35;;;;;;;7.03;1.33;;;20.10;99.90;;;;;;5051606;28;20029;-83
2022/01/13 11:44:21;;;;;;;4.30;1.65;;;20.10;99.90;;;;;;5053551;28;20013;-87
2022/01/13 11:46:50;;;;;;;5.97;1.42;;;20.00;99.90;;;;;;5052866;28;20028;-87
2022/01/13 11:49:31;;;;;;;5.53;0.98;;;20.00;99.90;;;;;;5053387;28;20567;-82
2022/01/13 11:52:10;;;;;;;5.78;1.58;;;20.00;99.90;;;;;;5051059;28;20378;-71
2022/01/13 11:54:41;;;;;;;5.00;0.90;;;20.00;99.90;;;;;;5051699;28;20063;-70
2022/01/13 11:57:23;;;;;;;6.18;1.00;;;20.00;99.90;;;;;;5051966;28;20020;-71
2022/01/13 11:59:58;;;;;;;7.80;0.82;;;20.00;99.90;;;;;;5051720;28;20470;-74
2022/01/13 12:02:30;;;;;;;4.53;1.33;;;20.00;99.90;;;;;;5052069;28;20027;-75
2022/01/13 12:05:14;;;;;;;16.35;1.25;;;20.00;99.90;;;;;;5052068;28;20025;-70
2022/01/13 12:07:47;;;;;;;7.93;0.93;;;20.10;99.90;;;;;;5051652;28;20350;-70
2022/01/13 12:10:40;;;;;;;5.32;0.60;;;20.10;99.90;;;;;;5051072;28;20052;-74
2022/01/13 12:13:33;;;;;;;4.32;0.65;;;20.10;99.90;;;;;;5051326;28;20162;-71
2022/01/13 12:16:02;;;;;;;6.25;1.25;;;20.10;99.90;;;;;;5051670;28;20378;-70
2022/01/13 12:18:48;;;;;;;7.03;0.80;;;20.10;99.90;;;;;;5052753;28;20377;-70
2022/01/13 12:21:34;;;;;;;;;;;20.10;99.90;;;;;;5050152;28;20183;-69
2022/01/13 12:24:04;;;;;;;5.43;1.10;;;20.10;99.90;;;;;;5052034;28;20062;-70
2022/01/13 12:26:35;;;;;;;9.05;1.23;;;20.10;99.90;;;;;;5051685;28;20013;-70
2022/01/13 12:29:30;;;;;;;8.50;0.80;;;20.10;99.90;;;;;;5052000;28;20095;-74
2022/01/13 12:31:59;;;;;;;3.83;0.88;;;20.10;99.90;;;;;;5055625;28;20062;-69
2022/01/13 12:34:30;;;;;;;4.82;1.27;;;20.10;99.90;;;;;;5052797;28;20485;-70
2022/01/13 12:37:00;;;;;;;5.38;1.42;;;20.10;99.90;;;;;;5055430;28;20056;-69
2022/01/13 12:39:28;;;;;;;7.07;0.80;;;20.10;99.90;;;;;;5057197;28;20080;-69
2022/01/13 12:42:05;;;;;;;7.53;1.33;;;20.10;99.90;;;;;;5059096;28;20112;-69
2022/01/13 12:47:21;;;;;;;3.97;1.40;;;20.10;99.90;;;;;;5058806;28;20378;-78
2022/01/13 12:49:49;;;;;;;9.00;1.35;;;20.10;99.90;;;;;;5055584;28;20429;-78
2022/01/13 12:52:21;;;;;;;5.00;0.80;;;20.10;99.90;;;;;;5057410;28;20120;-69
2022/01/13 12:54:49;;;;;;;6.07;1.20;;;20.10;99.90;;;;;;5059908;28;20112;-70
2022/01/13 12:57:17;;;;;;;5.07;0.77;;;20.10;99.90;;;;;;5056811;28;20029;-70
2022/01/13 12:59:46;;;;;;;4.88;0.73;;;20.10;99.90;;;;;;5055865;28;20032;-72
2022/01/13 13:02:14;;;;;;;5.60;0.93;;;20.10;99.90;;;;;;5060327;28;20029;-68
2022/01/13 13:04:41;;;;;;;3.13;0.60;;;20.10;99.90;;;;;;5057320;28;20025;-77
2022/01/13 13:07:09;;;;;;;6.35;1.00;;;20.10;99.90;;;;;;5057933;28;20021;-70
2022/01/13 13:09:37;;;;;;;3.95;1.00;;;20.10;99.90;;;;;;5066075;28;20021;-78
2022/01/13 13:12:09;;;;;;;4.55;0.70;;;20.00;99.90;;;;;;5061853;28;20072;-71
2022/01/13 13:17:35;;;;;;;6.25;1.65;;;20.00;99.90;;;;;;5060943;28;20397;-70
2022/01/13 13:20:03;;;;;;;5.50;0.85;;;20.00;99.90;;;;;;5060131;28;20044;-70
2022/01/13 13:22:44;;;;;;;5.05;0.80;;;20.00;99.90;;;;;;5063064;28;20021;-78
2022/01/13 13:25:11;;;;;;;2.97;0.65;;;20.00;99.90;;;;;;5063459;28;20025;-70
2022/01/13 13:27:38;;;;;;;2.72;0.63;;;20.00;99.90;;;;;;5062994;28;20115;-71
2022/01/13 13:30:06;;;;;;;3.38;0.93;;;20.00;99.90;;;;;;5062925;28;20035;-70
2022/01/13 13:32:33;;;;;;;6.75;1.65;;;20.00;99.90;;;;;;5059138;28;20037;-70
2022/01/13 13:35:01;;;;;;;6.25;0.77;;;19.90;99.90;;;;;;5058538;28;20021;-70
2022/01/13 13:37:28;;;;;;;2.78;0.75;;;19.90;99.90;;;;;;5057233;28;20029;-76
2022/01/13 13:39:55;;;;;;;3.13;1.00;;;19.90;99.90;;;;;;5057766;28;20029;-70
2022/01/13 13:42:26;;;;;;;13.00;0.93;;;19.90;99.90;;;;;;5058168;28;20036;-70
2022/01/13 13:44:53;;;;;;;2.72;0.93;;;19.90;99.90;;;;;;5062283;28;20021;-78
2022/01/13 13:47:20;;;;;;;3.50;0.63;;;20.00;99.90;;;;;;5058700;28;20143;-70